createdAt,value
2019-03-10T00:00:41.483Z,34.10
2019-03-10T00:03:08.324Z,34.10
2019-03-10T00:05:35.059Z,34.00
2019-03-10T00:08:01.812Z,34.10
2019-03-10T00:10:28.517Z,34.10
2019-03-10T00:12:55.598Z,34.70
2019-03-10T00:15:22.575Z,34.10
2019-03-10T00:17:49.458Z,34.20
2019-03-10T00:20:16.264Z,34.10
2019-03-10T00:22:43.018Z,34.20
2019-03-10T00:25:09.882Z,34.20
2019-03-10T00:27:36.658Z,34.20
2019-03-10T00:30:12.816Z,34.30
2019-03-10T00:32:39.968Z,34.40
2019-03-10T00:35:07.359Z,34.30
2019-03-10T00:37:34.484Z,34.40
2019-03-10T00:40:40.356Z,34.30
2019-03-10T00:43:28.966Z,34.40
2019-03-10T00:46:27.160Z,34.30
2019-03-10T00:49:12.027Z,34.40
2019-03-10T00:51:56.961Z,34.50
2019-03-10T00:54:23.701Z,34.50
2019-03-10T00:56:50.795Z,34.50
2019-03-10T00:59:17.636Z,34.50
2019-03-10T01:01:44.367Z,34.50
2019-03-10T01:04:11.106Z,34.60
2019-03-10T01:06:37.855Z,34.60
2019-03-10T01:09:04.978Z,34.50
2019-03-10T01:11:32.148Z,34.60
2019-03-10T01:13:58.942Z,34.60
2019-03-10T01:16:25.692Z,34.60
2019-03-10T01:18:52.658Z,34.60
2019-03-10T01:21:20.215Z,34.60
2019-03-10T01:23:46.976Z,34.70
2019-03-10T01:26:14.096Z,34.70
2019-03-10T01:28:41.274Z,34.70
2019-03-10T01:31:22.146Z,34.70
2019-03-10T01:34:06.890Z,34.70
2019-03-10T01:36:34.678Z,34.80
2019-03-10T01:39:01.441Z,34.70
2019-03-10T01:41:28.286Z,34.80
2019-03-10T01:43:55.026Z,34.80
2019-03-10T01:46:21.756Z,34.80
2019-03-10T01:48:49.243Z,34.80
2019-03-10T01:51:15.981Z,34.80
2019-03-10T01:53:42.727Z,34.80
2019-03-10T01:56:09.846Z,34.90
2019-03-10T01:58:37.170Z,34.90
2019-03-10T02:01:04.575Z,34.90
2019-03-10T02:03:31.283Z,35.00
2019-03-10T02:05:58.488Z,34.90
2019-03-10T02:08:26.837Z,35.00
2019-03-10T02:10:54.421Z,35.00
2019-03-10T02:13:21.509Z,34.90
2019-03-10T02:15:48.274Z,34.90
2019-03-10T02:18:15.386Z,34.90
2019-03-10T02:20:42.168Z,35.00
2019-03-10T02:23:08.973Z,35.00
2019-03-10T02:25:36.341Z,35.00
2019-03-10T02:28:03.254Z,35.00
2019-03-10T02:30:29.983Z,35.10
2019-03-10T02:32:56.850Z,35.00
2019-03-10T02:35:24.267Z,35.10
2019-03-10T02:37:51.815Z,35.00
2019-03-10T02:40:18.653Z,35.10
2019-03-10T02:42:45.774Z,35.10
2019-03-10T02:45:12.557Z,35.60
2019-03-10T02:47:39.645Z,35.10
2019-03-10T02:50:08.600Z,35.20
2019-03-10T02:52:35.779Z,35.20
2019-03-10T02:55:03.672Z,35.30
2019-03-10T02:57:30.430Z,35.20
2019-03-10T02:59:57.200Z,35.30
2019-03-10T03:02:23.965Z,35.30
2019-03-10T03:04:51.055Z,35.30
2019-03-10T03:07:17.766Z,35.30
2019-03-10T03:09:44.542Z,35.30
2019-03-10T03:12:11.647Z,35.30
2019-03-10T03:14:38.373Z,35.30
2019-03-10T03:17:05.066Z,35.30
2019-03-10T03:19:31.797Z,35.30
2019-03-10T03:21:58.596Z,35.30
2019-03-10T03:24:25.292Z,35.30
2019-03-10T03:26:52.091Z,35.40
2019-03-10T03:29:19.120Z,35.40
2019-03-10T03:31:47.117Z,35.40
2019-03-10T03:34:14.282Z,35.40
2019-03-10T03:36:41.029Z,35.40
2019-03-10T03:39:24.835Z,35.40
2019-03-10T03:41:51.586Z,35.50
2019-03-10T03:44:18.607Z,35.40
2019-03-10T03:46:45.334Z,35.50
2019-03-10T03:49:12.439Z,35.60
2019-03-10T03:51:39.163Z,35.60
2019-03-10T03:54:05.932Z,35.60
2019-03-10T03:56:32.667Z,35.60
2019-03-10T03:58:59.650Z,35.60
2019-03-10T04:01:28.320Z,35.60
2019-03-10T04:03:55.448Z,35.60
2019-03-10T04:06:22.176Z,35.60
2019-03-10T04:08:48.920Z,35.00
2019-03-10T04:11:15.638Z,35.60
2019-03-10T04:13:43.920Z,35.60
2019-03-10T04:16:10.684Z,35.70
2019-03-10T04:18:37.432Z,35.60
2019-03-10T04:21:04.444Z,35.60
2019-03-10T04:23:31.192Z,35.80
2019-03-10T04:25:57.969Z,35.60
2019-03-10T04:28:24.692Z,35.70
2019-03-10T04:30:51.415Z,35.70
2019-03-10T04:33:18.112Z,35.60
2019-03-10T04:35:44.915Z,35.80
2019-03-10T04:38:11.627Z,35.80
2019-03-10T04:40:38.346Z,35.80
2019-03-10T04:43:05.359Z,35.80
2019-03-10T04:45:32.903Z,35.80
2019-03-10T04:47:59.677Z,35.80
2019-03-10T04:50:26.990Z,35.90
2019-03-10T04:52:53.696Z,35.90
2019-03-10T04:55:28.378Z,35.90
2019-03-10T04:58:00.034Z,35.90
2019-03-10T05:00:27.801Z,35.90
2019-03-10T05:02:54.614Z,35.90
2019-03-10T05:05:21.342Z,35.90
2019-03-10T05:07:48.069Z,35.90
2019-03-10T05:10:15.281Z,35.90
2019-03-10T05:12:41.974Z,36.00
2019-03-10T05:15:09.039Z,36.00
2019-03-10T05:17:35.752Z,36.00
2019-03-10T05:20:04.994Z,35.90
2019-03-10T05:22:31.820Z,36.00
2019-03-10T05:24:58.541Z,36.00
2019-03-10T05:27:25.275Z,36.00
2019-03-10T05:29:52.424Z,36.00
2019-03-10T05:32:19.163Z,36.00
2019-03-10T05:34:46.226Z,35.90
2019-03-10T05:37:12.979Z,36.00
2019-03-10T05:39:39.734Z,36.00
2019-03-10T05:42:06.711Z,36.00
2019-03-10T05:44:33.885Z,36.00
2019-03-10T05:47:01.099Z,36.00
2019-03-10T05:49:28.610Z,36.00
2019-03-10T05:51:56.102Z,36.00
2019-03-10T05:54:22.863Z,36.00
2019-03-10T05:56:50.048Z,36.10
2019-03-10T05:59:16.852Z,36.00
2019-03-10T06:01:44.405Z,36.10
2019-03-10T06:04:11.334Z,36.00
2019-03-10T06:06:38.209Z,36.00
2019-03-10T06:09:04.937Z,36.00
2019-03-10T06:11:31.671Z,36.10
2019-03-10T06:13:58.924Z,36.10
2019-03-10T06:16:25.682Z,36.00
2019-03-10T06:18:52.407Z,36.10
2019-03-10T06:21:19.344Z,36.10
2019-03-10T06:23:46.375Z,36.20
2019-03-10T06:26:13.238Z,36.10
2019-03-10T06:28:40.013Z,36.10
2019-03-10T06:31:06.742Z,36.10
2019-03-10T06:33:33.446Z,36.20
2019-03-10T06:36:00.588Z,36.20
2019-03-10T06:38:27.666Z,36.10
2019-03-10T06:40:54.486Z,36.10
2019-03-10T06:43:21.207Z,36.70
2019-03-10T06:45:47.940Z,36.10
2019-03-10T06:48:14.704Z,36.20
2019-03-10T06:50:41.451Z,36.10
2019-03-10T06:53:08.596Z,36.40
2019-03-10T06:55:35.393Z,36.10
2019-03-10T06:58:02.192Z,36.10
2019-03-10T07:00:29.356Z,36.10
2019-03-10T07:02:56.065Z,36.10
2019-03-10T07:05:22.806Z,36.20
2019-03-10T07:07:49.970Z,36.20
2019-03-10T07:10:16.731Z,36.20
2019-03-10T07:12:43.563Z,35.80
2019-03-10T07:15:11.897Z,36.20
2019-03-10T07:17:38.760Z,36.20
2019-03-10T07:20:17.772Z,36.30
2019-03-10T07:22:44.566Z,36.20
2019-03-10T07:25:11.417Z,36.30
2019-03-10T07:27:56.941Z,36.30
2019-03-10T07:30:25.627Z,36.30
2019-03-10T07:32:56.937Z,36.90
2019-03-10T07:35:33.279Z,36.30
2019-03-10T07:38:01.906Z,36.30
2019-03-10T07:40:36.549Z,36.40
2019-03-10T07:43:20.491Z,36.30
2019-03-10T07:45:49.578Z,36.30
2019-03-10T07:48:31.446Z,36.40
2019-03-10T07:51:09.407Z,36.40
2019-03-10T07:53:53.269Z,36.40
2019-03-10T07:56:21.960Z,36.80
2019-03-10T07:58:58.810Z,36.40
2019-03-10T08:01:28.015Z,36.40
2019-03-10T08:03:55.454Z,36.40
2019-03-10T08:06:24.147Z,36.40
2019-03-10T08:09:08.477Z,36.40
2019-03-10T08:11:49.204Z,36.40
2019-03-10T08:14:30.963Z,36.40
2019-03-10T08:16:57.707Z,36.40
2019-03-10T08:19:36.448Z,36.40
2019-03-10T08:22:05.894Z,36.50
2019-03-10T08:24:40.763Z,37.10
2019-03-10T08:27:09.245Z,36.50
2019-03-10T08:29:44.138Z,36.40
2019-03-10T08:32:18.798Z,36.50
2019-03-10T08:34:50.751Z,36.30
2019-03-10T08:37:32.441Z,36.50
2019-03-10T08:40:06.759Z,36.40
2019-03-10T08:42:38.792Z,36.40
2019-03-10T08:45:26.114Z,36.30
2019-03-10T08:48:04.199Z,36.40
2019-03-10T08:50:33.432Z,36.50
2019-03-10T08:53:17.605Z,36.50
2019-03-10T08:55:55.156Z,36.50
2019-03-10T08:58:26.502Z,36.50
2019-03-10T09:01:04.764Z,36.50
2019-03-10T09:03:49.785Z,36.30
2019-03-10T09:06:35.691Z,36.50
2019-03-10T09:09:06.791Z,36.50
2019-03-10T09:11:47.719Z,36.50
2019-03-10T09:14:19.563Z,36.40
2019-03-10T09:16:50.980Z,36.40
2019-03-10T09:19:25.937Z,36.40
2019-03-10T09:22:01.910Z,36.40
2019-03-10T09:24:49.080Z,36.40
2019-03-10T09:27:34.220Z,36.50
2019-03-10T09:30:06.127Z,36.40
2019-03-10T09:32:33.469Z,36.30
2019-03-10T09:35:02.210Z,36.30
2019-03-10T09:37:46.070Z,36.40
2019-03-10T09:40:13.118Z,36.30
2019-03-10T09:42:58.703Z,36.40
2019-03-10T09:45:43.441Z,36.40
2019-03-10T09:48:30.380Z,36.40
2019-03-10T09:51:15.934Z,36.40
2019-03-10T09:54:01.269Z,36.50
2019-03-10T09:56:32.963Z,36.40
2019-03-10T09:59:01.661Z,36.50
2019-03-10T10:01:28.381Z,36.50
2019-03-10T10:03:57.869Z,36.50
2019-03-10T10:06:30.430Z,36.50
2019-03-10T10:08:59.505Z,36.50
2019-03-10T10:11:34.103Z,36.50
2019-03-10T10:14:03.095Z,37.20
2019-03-10T10:16:32.658Z,36.60
2019-03-10T10:19:13.457Z,36.50
2019-03-10T10:21:48.131Z,36.40
2019-03-10T10:24:16.785Z,36.30
2019-03-10T10:26:45.540Z,36.30
2019-03-10T10:29:20.568Z,36.40
2019-03-10T10:31:52.089Z,36.30
2019-03-10T10:34:41.543Z,36.30
2019-03-10T10:37:13.590Z,36.40
2019-03-10T10:39:58.657Z,36.40
2019-03-10T10:42:31.671Z,36.40
2019-03-10T10:45:17.206Z,36.30
2019-03-10T10:47:48.866Z,36.40
2019-03-10T10:50:15.639Z,36.40
2019-03-10T10:52:42.674Z,36.40
2019-03-10T10:55:14.189Z,36.50
2019-03-10T10:57:50.752Z,36.50
2019-03-10T11:00:22.858Z,36.50
2019-03-10T11:02:54.420Z,36.50
2019-03-10T11:05:23.069Z,36.60
2019-03-10T11:08:02.046Z,36.60
2019-03-10T11:10:32.069Z,36.60
2019-03-10T11:13:12.609Z,36.60
2019-03-10T11:15:57.855Z,36.60
2019-03-10T11:18:26.831Z,36.60
2019-03-10T11:21:01.285Z,36.30
2019-03-10T11:23:30.069Z,36.60
2019-03-10T11:25:56.819Z,36.60
2019-03-10T11:28:32.450Z,36.60
2019-03-10T11:31:01.098Z,36.60
2019-03-10T11:33:33.938Z,36.70
2019-03-10T11:36:06.898Z,36.70
2019-03-10T11:38:41.742Z,36.70
2019-03-10T11:41:11.584Z,36.80
2019-03-10T11:43:38.322Z,36.80
2019-03-10T11:46:18.003Z,36.30
2019-03-10T11:48:52.612Z,36.90
2019-03-10T11:51:21.751Z,36.90
2019-03-10T11:54:07.339Z,36.70
2019-03-10T11:56:37.556Z,36.90
2019-03-10T11:59:12.296Z,36.90
2019-03-10T12:01:43.984Z,36.90
2019-03-10T12:04:15.562Z,36.80
2019-03-10T12:06:42.342Z,36.90
2019-03-10T12:09:13.844Z,36.90
2019-03-10T12:11:40.574Z,36.90
2019-03-10T12:14:07.302Z,37.00
2019-03-10T12:16:34.040Z,37.00
2019-03-10T12:19:00.909Z,37.00
2019-03-10T12:21:28.093Z,37.00
2019-03-10T12:23:55.251Z,37.10
2019-03-10T12:26:22.039Z,37.10
2019-03-10T12:28:48.901Z,37.20
2019-03-10T12:31:16.051Z,37.20
2019-03-10T12:33:43.229Z,37.30
2019-03-10T12:36:10.445Z,37.30
2019-03-10T12:38:37.216Z,37.50
2019-03-10T12:41:04.140Z,37.50
2019-03-10T12:43:31.214Z,37.60
2019-03-10T12:45:58.005Z,37.60
2019-03-10T12:48:24.812Z,37.70
2019-03-10T12:50:51.871Z,37.70
2019-03-10T12:53:18.591Z,37.70
2019-03-10T12:55:45.328Z,37.70
2019-03-10T12:58:12.057Z,37.70
2019-03-10T13:00:39.398Z,37.70
2019-03-10T13:03:06.708Z,37.60
2019-03-10T13:05:33.558Z,37.60
2019-03-10T13:08:00.425Z,37.60
2019-03-10T13:10:27.287Z,37.60
2019-03-10T13:12:54.149Z,37.70
2019-03-10T13:15:21.383Z,37.60
2019-03-10T13:17:48.560Z,37.70
2019-03-10T13:20:27.823Z,37.70
2019-03-10T13:22:46.843Z,37.70
2019-03-10T13:25:13.995Z,37.70
2019-03-10T13:27:40.707Z,37.70
2019-03-10T13:30:13.460Z,37.70
2019-03-10T13:32:40.196Z,37.70
2019-03-10T13:35:07.143Z,37.70
2019-03-10T13:37:34.183Z,37.80
2019-03-10T13:40:00.929Z,37.80
2019-03-10T13:42:28.046Z,37.90
2019-03-10T13:44:55.099Z,37.80
2019-03-10T13:47:23.655Z,37.70
2019-03-10T13:49:50.371Z,37.80
2019-03-10T13:52:17.108Z,37.70
2019-03-10T13:54:43.887Z,37.80
2019-03-10T13:57:11.670Z,37.70
2019-03-10T13:59:38.393Z,37.80
2019-03-10T14:02:05.260Z,37.70
2019-03-10T14:04:32.956Z,37.80
2019-03-10T14:07:00.098Z,37.80
2019-03-10T14:09:27.256Z,37.80
2019-03-10T14:11:54.502Z,37.80
2019-03-10T14:14:21.232Z,37.80
2019-03-10T14:16:48.224Z,37.80
2019-03-10T14:19:15.102Z,37.80
2019-03-10T14:21:42.902Z,37.80
2019-03-10T14:24:10.361Z,37.80
2019-03-10T14:26:37.214Z,37.80
2019-03-10T14:29:03.923Z,37.70
2019-03-10T14:31:30.648Z,37.60
2019-03-10T14:33:57.532Z,37.60
2019-03-10T14:36:24.912Z,37.50
2019-03-10T14:38:51.681Z,37.50
2019-03-10T14:41:18.440Z,37.40
2019-03-10T14:43:45.825Z,37.40
2019-03-10T14:46:12.543Z,37.30
2019-03-10T14:48:39.281Z,37.40
2019-03-10T14:51:11.738Z,37.60
2019-03-10T14:53:39.138Z,37.50
2019-03-10T14:56:05.854Z,37.30
2019-03-10T14:58:32.611Z,37.50
2019-03-10T15:00:59.595Z,37.40
2019-03-10T15:03:26.299Z,37.40
2019-03-10T15:05:53.170Z,37.40
2019-03-10T15:08:19.883Z,37.40
2019-03-10T15:10:46.988Z,37.40
2019-03-10T15:13:13.986Z,37.90
2019-03-10T15:15:40.713Z,37.40
2019-03-10T15:18:07.762Z,37.40
2019-03-10T15:20:34.537Z,37.40
2019-03-10T15:23:01.542Z,37.30
2019-03-10T15:25:28.383Z,37.10
2019-03-10T15:27:55.152Z,37.10
2019-03-10T15:30:23.915Z,37.20
2019-03-10T15:32:51.249Z,37.20
2019-03-10T15:35:18.481Z,37.30
2019-03-10T15:37:45.768Z,37.40
2019-03-10T15:40:17.685Z,37.40
2019-03-10T15:42:44.791Z,37.40
2019-03-10T15:45:17.261Z,37.40
2019-03-10T15:47:44.339Z,37.60
2019-03-10T15:50:37.268Z,37.50
2019-03-10T15:53:04.027Z,37.50
2019-03-10T15:55:31.156Z,37.60
2019-03-10T15:57:58.903Z,37.60
2019-03-10T16:00:26.849Z,37.60
2019-03-10T16:02:53.703Z,37.70
2019-03-10T16:05:20.884Z,37.70
2019-03-10T16:07:48.139Z,37.60
2019-03-10T16:10:15.285Z,37.60
2019-03-10T16:12:42.441Z,37.50
2019-03-10T16:15:19.362Z,37.60
2019-03-10T16:17:48.120Z,37.60
2019-03-10T16:20:15.109Z,37.60
2019-03-10T16:22:41.985Z,37.60
2019-03-10T16:25:17.441Z,37.50
2019-03-10T16:27:44.295Z,37.60
2019-03-10T16:30:21.557Z,37.50
2019-03-10T16:32:48.325Z,37.60
2019-03-10T16:35:15.109Z,37.50
2019-03-10T16:37:42.212Z,37.60
2019-03-10T16:40:15.363Z,37.50
2019-03-10T16:42:42.490Z,37.60
2019-03-10T16:45:19.123Z,37.60
2019-03-10T16:47:45.902Z,37.60
2019-03-10T16:50:26.945Z,37.60
2019-03-10T16:52:53.794Z,37.70
2019-03-10T16:55:20.770Z,37.70
2019-03-10T16:57:47.938Z,37.80
2019-03-10T17:00:15.410Z,37.70
2019-03-10T17:02:43.258Z,37.70
2019-03-10T17:05:19.577Z,37.60
2019-03-10T17:07:46.354Z,37.70
2019-03-10T17:10:16.411Z,37.70
2019-03-10T17:12:43.163Z,37.70
2019-03-10T17:15:13.946Z,37.60
2019-03-10T17:17:40.786Z,37.60
2019-03-10T17:20:11.644Z,37.70
2019-03-10T17:22:38.365Z,37.60
2019-03-10T17:25:07.583Z,37.70
2019-03-10T17:27:34.733Z,37.60
2019-03-10T17:30:01.558Z,37.60
2019-03-10T17:32:28.306Z,37.70
2019-03-10T17:34:55.062Z,37.70
2019-03-10T17:37:21.812Z,37.70
2019-03-10T17:39:48.555Z,37.70
2019-03-10T17:42:15.313Z,37.70
2019-03-10T17:44:42.566Z,37.70
2019-03-10T17:47:10.327Z,37.60
2019-03-10T17:49:37.191Z,37.80
2019-03-10T17:52:14.045Z,37.70
2019-03-10T17:54:32.596Z,37.80
2019-03-10T17:56:59.326Z,37.80
2019-03-10T17:59:27.079Z,37.70
2019-03-10T18:01:53.831Z,37.80
2019-03-10T18:04:20.639Z,37.70
2019-03-10T18:06:47.646Z,37.70
2019-03-10T18:09:15.363Z,37.80
2019-03-10T18:11:42.594Z,37.70
2019-03-10T18:14:10.100Z,37.80
2019-03-10T18:16:37.218Z,37.70
2019-03-10T18:19:03.936Z,37.80
2019-03-10T18:21:31.058Z,37.80
2019-03-10T18:23:58.167Z,37.80
2019-03-10T18:26:24.945Z,37.80
2019-03-10T18:28:52.015Z,37.80
2019-03-10T18:31:20.610Z,37.80
2019-03-10T18:33:47.374Z,37.90
2019-03-10T18:36:14.625Z,37.90
2019-03-10T18:38:41.469Z,37.90
2019-03-10T18:41:08.201Z,37.90
2019-03-10T18:43:36.855Z,37.90
2019-03-10T18:46:03.667Z,37.90
2019-03-10T18:48:30.740Z,38.00
2019-03-10T18:50:57.535Z,37.90
2019-03-10T18:53:24.294Z,37.90
2019-03-10T18:55:51.106Z,38.00
2019-03-10T18:58:17.835Z,37.90
2019-03-10T19:00:44.742Z,37.90
2019-03-10T19:03:14.449Z,37.90
2019-03-10T19:05:41.190Z,37.90
2019-03-10T19:08:07.931Z,37.90
2019-03-10T19:10:34.776Z,37.90
2019-03-10T19:13:01.556Z,37.90
2019-03-10T19:15:28.384Z,37.90
2019-03-10T19:17:55.561Z,38.00
2019-03-10T19:20:24.233Z,38.00
2019-03-10T19:22:51.000Z,38.00
2019-03-10T19:25:17.856Z,37.90
2019-03-10T19:27:44.633Z,38.00
2019-03-10T19:30:21.698Z,37.90
2019-03-10T19:32:48.430Z,37.90
2019-03-10T19:35:15.333Z,37.90
2019-03-10T19:37:42.130Z,38.00
2019-03-10T19:40:14.907Z,37.90
2019-03-10T19:42:42.210Z,38.00
2019-03-10T19:45:21.065Z,38.00
2019-03-10T19:47:47.830Z,38.00
2019-03-10T19:50:27.656Z,38.00
2019-03-10T19:52:54.866Z,38.00
2019-03-10T19:55:21.644Z,37.90
2019-03-10T19:57:48.381Z,38.00
2019-03-10T20:00:19.206Z,38.00
2019-03-10T20:02:46.238Z,38.00
2019-03-10T20:05:15.181Z,37.90
2019-03-10T20:07:43.057Z,37.90
2019-03-10T20:10:21.723Z,38.00
2019-03-10T20:12:48.445Z,37.90
2019-03-10T20:15:19.805Z,37.90
2019-03-10T20:17:46.586Z,37.90
2019-03-10T20:20:19.425Z,37.90
2019-03-10T20:22:46.216Z,37.90
2019-03-10T20:25:14.493Z,37.90
2019-03-10T20:27:42.324Z,37.80
2019-03-10T20:30:18.432Z,37.80
2019-03-10T20:32:45.140Z,37.80
2019-03-10T20:35:12.722Z,37.80
2019-03-10T20:37:39.553Z,37.80
2019-03-10T20:40:24.591Z,37.80
2019-03-10T20:42:51.461Z,37.80
2019-03-10T20:45:18.250Z,37.80
2019-03-10T20:47:45.783Z,37.70
2019-03-10T20:50:18.601Z,37.70
2019-03-10T20:52:45.396Z,37.80
2019-03-10T20:55:13.833Z,37.70
2019-03-10T20:57:40.634Z,37.80
2019-03-10T21:00:21.341Z,37.80
2019-03-10T21:02:48.099Z,37.80
2019-03-10T21:05:14.828Z,37.80
2019-03-10T21:07:41.659Z,38.10
2019-03-10T21:10:16.303Z,37.70
2019-03-10T21:12:43.416Z,37.70
2019-03-10T21:15:19.035Z,37.70
2019-03-10T21:17:45.823Z,37.60
2019-03-10T21:20:17.207Z,37.70
2019-03-10T21:22:44.074Z,37.60
2019-03-10T21:25:20.652Z,37.70
2019-03-10T21:27:47.512Z,37.60
2019-03-10T21:30:29.814Z,37.60
2019-03-10T21:32:56.566Z,37.60
2019-03-10T21:35:23.334Z,37.60
2019-03-10T21:37:50.450Z,37.60
2019-03-10T21:40:33.091Z,37.50
2019-03-10T21:42:59.961Z,37.60
2019-03-10T21:45:27.086Z,37.60
2019-03-10T21:47:54.619Z,37.60
2019-03-10T21:50:21.462Z,37.60
2019-03-10T21:52:48.398Z,37.60
2019-03-10T21:55:16.456Z,37.50
2019-03-10T21:57:43.283Z,37.60
2019-03-10T22:00:17.390Z,37.50
2019-03-10T22:02:44.120Z,37.60
2019-03-10T22:05:13.206Z,37.40
2019-03-10T22:07:40.091Z,37.40
2019-03-10T22:10:11.309Z,37.40
2019-03-10T22:12:38.196Z,37.40
2019-03-10T22:15:15.996Z,37.40
2019-03-10T22:17:42.923Z,37.40
2019-03-10T22:20:14.847Z,37.30
2019-03-10T22:22:48.253Z,38.00
2019-03-10T22:25:12.978Z,37.40
2019-03-10T22:27:45.371Z,37.40
2019-03-10T22:30:20.379Z,37.30
2019-03-10T22:32:47.237Z,37.30
2019-03-10T22:35:15.192Z,37.30
2019-03-10T22:37:42.571Z,37.30
2019-03-10T22:40:17.097Z,37.20
2019-03-10T22:42:43.972Z,37.20
2019-03-10T22:45:17.170Z,37.20
2019-03-10T22:47:44.343Z,37.20
2019-03-10T22:50:12.786Z,37.20
2019-03-10T22:52:39.659Z,37.20
2019-03-10T22:55:11.689Z,37.20
2019-03-10T22:57:38.539Z,37.20
2019-03-10T23:00:23.108Z,37.10
2019-03-10T23:02:49.859Z,37.10
2019-03-10T23:05:16.626Z,37.10
2019-03-10T23:07:43.376Z,37.10
2019-03-10T23:10:12.675Z,37.10
2019-03-10T23:12:39.395Z,37.10
2019-03-10T23:15:09.548Z,37.00
2019-03-10T23:17:36.288Z,37.00
2019-03-10T23:20:13.452Z,37.00
2019-03-10T23:22:40.189Z,37.00
2019-03-10T23:25:07.811Z,37.00
2019-03-10T23:27:35.354Z,36.90
2019-03-10T23:30:02.522Z,37.00
2019-03-10T23:32:30.451Z,37.00
2019-03-10T23:34:57.325Z,37.00
2019-03-10T23:37:24.079Z,37.30
2019-03-10T23:39:50.821Z,36.90
2019-03-10T23:42:17.934Z,36.90
2019-03-10T23:44:45.071Z,36.90
2019-03-10T23:47:12.235Z,36.90
2019-03-10T23:49:40.096Z,36.90
2019-03-10T23:52:07.749Z,36.90
2019-03-10T23:54:34.476Z,36.80
2019-03-10T23:57:01.601Z,36.80
2019-03-10T23:59:28.370Z,36.80
